Terminal Aerodrome Forecast
Issued by NWS

Home | Current Version | Previous Version | Text Only | Print | Product List | Glossary Off
Versions: 1 2 3 4 5 6 7 8 9 10 11 12 13 14 15 16

468
FTUS41 KCLE 231727
TAFFDY
TAF
KFDY 231727Z 2318/2418 22005KT P6SM SCT020 BKN070
      TEMPO 2318/2321 BKN020
     FM232100 28006KT P6SM SCT030 BKN100
      TEMPO 2321/2324 4SM -TSRA BKN020CB
     FM240600 29006KT P6SM BKN060
     FM241400 32008KT P6SM SCT025=

USA.gov is the U.S. government's official web portal to all federal, state and local government web resources and services.